Time;durP1;ratioP1;P1;durP2;ratioP2;P2;SDS_P1;SDS_P2;PMS_P1;PMS_P2;Temp;Humidity;BMP_temperature;BMP_pressure;BME280_temperature;BME280_humidity;BME280_pressure;Samples;Min_cycle;Max_cycle;Signal;HPM_P1;HPM_P2
2023/09/12 00:01:45;;;;;;;10.07;5.32;;;16.30;99.90;;;;;;5042436;28;20017;-93
2023/09/12 00:04:11;;;;;;;10.15;5.10;;;16.30;99.90;;;;;;5034143;28;20521;-93
2023/09/12 00:06:37;;;;;;;11.05;5.40;;;16.30;99.90;;;;;;5033880;28;20018;-94
2023/09/12 00:09:05;;;;;;;11.80;5.22;;;16.30;99.90;;;;;;5035803;28;20368;-93
2023/09/12 00:11:31;;;;;;;8.18;5.60;;;16.30;99.90;;;;;;5043324;28;20025;-93
2023/09/12 00:13:56;;;;;;;8.00;5.10;;;16.20;99.90;;;;;;5040484;28;20025;-93
2023/09/12 00:16:22;;;;;;;10.10;5.95;;;16.20;99.90;;;;;;5040093;28;20036;-92
2023/09/12 00:18:48;;;;;;;8.43;5.10;;;16.20;99.90;;;;;;5041861;28;20040;-92
2023/09/12 00:21:13;;;;;;;9.45;5.30;;;16.20;99.90;;;;;;5039947;28;20120;-90
2023/09/12 00:23:39;;;;;;;8.32;5.50;;;16.20;99.90;;;;;;5042191;28;20109;-92
2023/09/12 00:26:04;;;;;;;8.45;5.50;;;16.20;99.90;;;;;;5041214;28;20433;-93
2023/09/12 00:28:30;;;;;;;9.73;5.82;;;16.30;99.90;;;;;;5040815;28;20017;-94
2023/09/12 00:30:56;;;;;;;11.40;5.47;;;16.20;99.90;;;;;;5043212;28;20013;-92
2023/09/12 00:33:21;;;;;;;10.93;5.38;;;16.30;99.90;;;;;;5037981;28;20387;-91
2023/09/12 00:35:47;;;;;;;9.55;5.65;;;16.20;99.90;;;;;;5034020;28;20017;-93
2023/09/12 00:38:12;;;;;;;11.07;5.90;;;16.20;99.90;;;;;;5038329;28;20518;-92
2023/09/12 00:40:38;;;;;;;7.80;5.55;;;16.20;99.90;;;;;;5042976;28;20017;-93
2023/09/12 00:43:04;;;;;;;8.27;4.78;;;16.20;99.90;;;;;;5044694;28;20017;-93
2023/09/12 00:45:30;;;;;;;9.25;5.63;;;16.20;99.90;;;;;;5042489;28;20057;-93
2023/09/12 00:47:58;;;;;;;9.63;4.90;;;16.20;99.90;;;;;;5053440;28;20474;-92
2023/09/12 00:50:26;;;;;;;7.35;4.25;;;16.20;99.90;;;;;;5053091;28;20029;-91
2023/09/12 00:52:54;;;;;;;6.32;3.85;;;16.10;99.90;;;;;;5052012;28;20094;-93
2023/09/12 00:55:20;;;;;;;3.60;2.83;;;16.10;99.90;;;;;;5052294;28;20124;-92
2023/09/12 00:57:46;;;;;;;7.78;2.88;;;16.10;99.90;;;;;;5053359;28;20104;-91
2023/09/12 01:00:13;;;;;;;9.43;2.80;;;16.10;99.90;;;;;;5052074;28;20060;-92
2023/09/12 01:02:43;;;;;;;7.55;2.63;;;16.10;99.90;;;;;;5051522;28;20473;-93
2023/09/12 01:05:11;;;;;;;4.30;2.65;;;16.10;99.90;;;;;;5053119;28;20433;-93
2023/09/12 01:07:38;;;;;;;5.38;3.20;;;16.00;99.90;;;;;;5051329;28;20055;-92
2023/09/12 01:10:05;;;;;;;5.38;2.90;;;16.00;99.90;;;;;;5051802;28;20029;-92
2023/09/12 01:12:31;;;;;;;5.55;3.20;;;16.00;99.90;;;;;;5053324;28;20025;-92
2023/09/12 01:14:56;;;;;;;5.43;3.33;;;16.00;99.90;;;;;;5052811;28;20025;-93
2023/09/12 01:17:24;;;;;;;5.22;2.40;;;16.00;99.90;;;;;;5052075;28;20040;-92
2023/09/12 01:19:50;;;;;;;6.47;3.00;;;16.00;99.90;;;;;;5052562;28;20029;-91
2023/09/12 01:22:40;;;;;;;3.67;2.42;;;16.00;99.90;;;;;;5052221;28;20032;-93
2023/09/12 01:25:41;;;;;;;3.88;2.55;;;16.00;99.90;;;;;;5054558;28;20033;-92
2023/09/12 01:28:09;;;;;;;;;;;16.00;99.90;;;;;;5036702;28;20097;-92
2023/09/12 01:30:35;;;;;;;6.18;2.45;;;16.00;99.90;;;;;;5036430;28;19911;-91
2023/09/12 01:33:01;;;;;;;7.80;2.72;;;16.00;99.90;;;;;;5037730;28;20166;-91
2023/09/12 01:35:27;;;;;;;5.43;2.72;;;16.00;99.90;;;;;;5035953;28;20120;-92
2023/09/12 01:37:54;;;;;;;3.97;2.90;;;16.00;99.90;;;;;;5035705;28;20053;-93
2023/09/12 01:40:30;;;;;;;5.13;3.78;;;16.00;99.90;;;;;;5035851;28;20029;-94
2023/09/12 01:42:57;;;;;;;7.55;3.17;;;16.00;99.90;;;;;;5034961;28;20029;-92
2023/09/12 01:45:23;;;;;;;9.68;3.42;;;16.10;99.90;;;;;;5035972;28;20033;-93
2023/09/12 01:47:50;;;;;;;7.05;3.55;;;16.10;99.90;;;;;;5036203;28;20100;-92
2023/09/12 01:50:17;;;;;;;6.47;3.50;;;16.10;99.90;;;;;;5035663;28;20081;-92
2023/09/12 01:52:43;;;;;;;6.05;3.45;;;16.10;99.90;;;;;;5034256;28;20025;-92
2023/09/12 01:55:10;;;;;;;6.35;3.40;;;16.10;99.90;;;;;;5036115;28;20076;-91
2023/09/12 01:57:37;;;;;;;5.85;3.20;;;16.10;99.90;;;;;;5034673;28;20033;-93
2023/09/12 02:00:03;;;;;;;7.85;3.95;;;16.10;99.90;;;;;;5034517;28;20556;-91
2023/09/12 02:02:29;;;;;;;5.47;3.20;;;16.10;99.90;;;;;;5034556;28;20061;-92
2023/09/12 02:05:07;;;;;;;5.75;3.80;;;16.20;99.90;;;;;;5034240;28;20029;-91
2023/09/12 02:07:38;;;;;;;4.20;3.28;;;16.20;99.90;;;;;;5034191;28;20148;-93
2023/09/12 02:10:05;;;;;;;5.03;2.95;;;16.10;99.90;;;;;;5034454;28;20032;-93
2023/09/12 02:12:32;;;;;;;4.97;2.83;;;16.10;99.90;;;;;;5035481;28;20021;-93
2023/09/12 02:14:57;;;;;;;2.90;2.08;;;16.10;99.90;;;;;;5035698;28;20053;-93
2023/09/12 02:17:23;;;;;;;4.47;2.47;;;16.10;99.90;;;;;;5034927;28;20533;-92
2023/09/12 02:19:49;;;;;;;5.38;2.47;;;16.00;99.90;;;;;;5035851;28;20490;-93
2023/09/12 02:22:14;;;;;;;3.25;2.40;;;16.00;99.90;;;;;;5035616;28;20045;-94
2023/09/12 02:24:41;;;;;;;3.72;2.70;;;16.00;99.90;;;;;;5040083;28;20026;-94
2023/09/12 02:27:06;;;;;;;5.13;3.00;;;16.00;99.90;;;;;;5047410;28;20029;-91
2023/09/12 02:29:33;;;;;;;5.68;3.13;;;16.00;99.90;;;;;;5046119;28;20036;-93
2023/09/12 02:31:59;;;;;;;4.03;2.90;;;16.00;99.90;;;;;;5043656;28;20026;-92
2023/09/12 02:34:25;;;;;;;4.90;3.00;;;15.90;99.90;;;;;;5040144;28;20039;-92
2023/09/12 02:36:51;;;;;;;5.80;3.03;;;15.90;99.90;;;;;;5036120;28;20029;-92
2023/09/12 02:39:16;;;;;;;5.05;2.97;;;15.90;99.90;;;;;;5020112;28;20064;-91
2023/09/12 02:41:42;;;;;;;3.20;2.60;;;15.90;99.90;;;;;;5036162;28;20594;-93
2023/09/12 02:44:08;;;;;;;3.45;2.63;;;15.90;99.90;;;;;;5034529;28;20044;-94
2023/09/12 02:46:34;;;;;;;4.20;2.92;;;15.90;99.90;;;;;;5035243;28;20044;-93
2023/09/12 02:49:00;;;;;;;4.00;2.17;;;16.00;99.90;;;;;;5034490;28;20032;-93
2023/09/12 02:51:26;;;;;;;3.95;2.88;;;15.90;99.90;;;;;;5035722;28;20029;-91
2023/09/12 02:53:51;;;;;;;2.42;1.83;;;16.00;99.90;;;;;;5035312;28;20030;-91
2023/09/12 02:56:17;;;;;;;3.28;1.70;;;15.90;99.90;;;;;;5033838;28;20099;-92
2023/09/12 02:58:46;;;;;;;3.88;0.95;;;15.90;99.90;;;;;;5034695;28;20487;-92
2023/09/12 03:01:19;;;;;;;0.40;0.35;;;15.90;99.90;;;;;;5034525;28;20030;-93
2023/09/12 03:03:49;;;;;;;1.85;0.40;;;15.90;99.90;;;;;;5034988;28;20040;-93
2023/09/12 03:06:15;;;;;;;0.40;0.40;;;15.90;99.90;;;;;;5033757;28;20544;-93
2023/09/12 03:08:41;;;;;;;1.05;0.30;;;15.80;99.90;;;;;;5034534;28;20034;-93
2023/09/12 03:11:07;;;;;;;2.38;0.50;;;15.80;99.90;;;;;;5033599;28;20021;-93
2023/09/12 03:13:42;;;;;;;0.57;0.55;;;15.80;99.90;;;;;;5034636;28;20037;-91
2023/09/12 03:16:12;;;;;;;0.40;0.40;;;15.80;99.90;;;;;;5033025;28;20112;-93
2023/09/12 03:18:37;;;;;;;0.88;0.38;;;15.80;99.90;;;;;;5033028;28;20132;-93
2023/09/12 03:21:03;;;;;;;1.95;0.95;;;15.80;99.90;;;;;;5034133;28;20038;-91
2023/09/12 03:23:29;;;;;;;2.38;0.90;;;15.70;99.90;;;;;;5033565;28;20048;-93
2023/09/12 03:25:54;;;;;;;0.40;0.40;;;15.70;99.90;;;;;;5038523;28;20009;-93
2023/09/12 03:28:20;;;;;;;1.67;0.90;;;15.70;99.90;;;;;;5054412;28;20111;-93
2023/09/12 03:30:46;;;;;;;2.08;0.82;;;15.70;99.90;;;;;;5053190;28;20031;-93
2023/09/12 03:33:12;;;;;;;0.93;0.85;;;15.70;99.90;;;;;;5053968;28;20470;-92
2023/09/12 03:35:37;;;;;;;2.15;0.80;;;15.60;99.90;;;;;;5054055;28;20382;-91
2023/09/12 03:38:03;;;;;;;1.05;0.60;;;15.60;99.90;;;;;;5053878;28;20471;-92
2023/09/12 03:40:32;;;;;;;1.30;0.60;;;15.60;99.90;;;;;;5054241;28;20536;-92
2023/09/12 03:42:58;;;;;;;1.40;0.68;;;15.60;99.90;;;;;;5054012;28;20104;-93
2023/09/12 03:45:24;;;;;;;0.63;0.55;;;15.60;99.90;;;;;;5053409;28;20060;-92
2023/09/12 03:47:51;;;;;;;0.98;0.90;;;15.60;99.90;;;;;;5052737;28;20051;-92
2023/09/12 03:50:17;;;;;;;3.85;1.30;;;15.50;99.90;;;;;;5052835;28;20075;-92
2023/09/12 03:52:42;;;;;;;2.45;1.52;;;15.40;99.90;;;;;;5052539;28;20021;-92
2023/09/12 03:55:08;;;;;;;2.45;1.90;;;15.40;99.90;;;;;;5053816;28;20528;-92
2023/09/12 03:57:34;;;;;;;5.55;1.95;;;15.30;99.90;;;;;;5052397;28;20021;-92
2023/09/12 04:00:00;;;;;;;2.35;1.92;;;15.20;99.90;;;;;;5053484;28;20020;-93
2023/09/12 04:02:25;;;;;;;3.30;2.70;;;15.10;99.90;;;;;;5052792;28;20045;-92
2023/09/12 04:04:51;;;;;;;3.35;2.80;;;15.00;99.90;;;;;;5051788;28;20116;-91
2023/09/12 04:07:17;;;;;;;3.83;2.72;;;14.90;99.90;;;;;;5051740;28;20025;-92
2023/09/12 04:09:43;;;;;;;4.88;3.20;;;14.80;99.90;;;;;;5051717;28;20040;-91
2023/09/12 04:12:09;;;;;;;3.22;2.92;;;14.80;99.90;;;;;;5051881;28;20025;-93
2023/09/12 04:14:35;;;;;;;3.25;2.83;;;14.70;99.90;;;;;;5053110;28;20514;-90
2023/09/12 04:17:01;;;;;;;3.65;2.00;;;14.70;99.90;;;;;;5051679;28;20045;-92
2023/09/12 04:19:27;;;;;;;2.10;1.60;;;14.60;99.90;;;;;;5052324;28;20072;-92
2023/09/12 04:21:52;;;;;;;1.48;1.17;;;14.60;99.90;;;;;;5052623;28;20029;-93
2023/09/12 04:24:18;;;;;;;1.63;1.10;;;14.50;99.90;;;;;;5052308;28;20029;-93
2023/09/12 04:26:44;;;;;;;1.45;0.90;;;14.50;99.90;;;;;;5042240;28;20021;-93
2023/09/12 04:29:10;;;;;;;1.50;0.90;;;14.50;99.90;;;;;;5034271;28;20040;-94
2023/09/12 04:31:36;;;;;;;3.35;0.90;;;14.40;99.90;;;;;;5043529;28;20039;-91
2023/09/12 04:34:02;;;;;;;1.38;0.70;;;14.40;99.90;;;;;;5050813;28;20108;-93
2023/09/12 04:36:27;;;;;;;0.65;0.65;;;14.40;99.90;;;;;;5050673;28;20033;-93
2023/09/12 04:38:53;;;;;;;0.95;0.35;;;14.30;99.90;;;;;;5052306;28;20095;-91
2023/09/12 04:41:18;;;;;;;0.95;0.40;;;14.30;99.90;;;;;;5053739;28;20024;-93
2023/09/12 04:43:44;;;;;;;0.82;0.50;;;14.30;99.90;;;;;;5050702;28;20021;-92
2023/09/12 04:46:11;;;;;;;0.68;0.50;;;14.20;99.90;;;;;;5051621;28;20506;-92
2023/09/12 04:48:37;;;;;;;0.68;0.30;;;14.20;99.90;;;;;;5049950;28;20104;-92
2023/09/12 04:51:03;;;;;;;1.13;0.30;;;14.10;99.90;;;;;;5051828;28;20025;-93
2023/09/12 04:53:34;;;;;;;0.60;0.30;;;14.10;99.90;;;;;;5052543;28;20082;-93
2023/09/12 04:56:00;;;;;;;0.00;0.00;;;14.10;99.90;;;;;;5053567;28;20032;-92
2023/09/12 04:58:26;;;;;;;0.20;0.20;;;14.10;99.90;;;;;;5053119;28;20033;-91
2023/09/12 05:00:51;;;;;;;0.10;0.10;;;14.10;99.90;;;;;;5041809;28;20021;-91
2023/09/12 05:03:17;;;;;;;1.15;0.40;;;14.10;99.90;;;;;;5036550;28;20025;-92
2023/09/12 05:05:46;;;;;;;0.55;0.00;;;14.00;99.90;;;;;;5035532;28;20136;-93
2023/09/12 05:08:12;;;;;;;0.00;0.00;;;14.00;99.90;;;;;;5051978;28;20083;-91
2023/09/12 05:10:38;;;;;;;0.10;0.10;;;14.00;99.90;;;;;;5052316;28;20029;-91
2023/09/12 05:13:04;;;;;;;0.10;0.10;;;14.00;99.90;;;;;;5036343;28;20064;-94
2023/09/12 05:15:30;;;;;;;0.82;0.20;;;14.00;99.90;;;;;;5035264;28;20021;-90
2023/09/12 05:17:56;;;;;;;0.40;0.20;;;13.90;99.90;;;;;;5051970;28;20444;-92
2023/09/12 05:20:22;;;;;;;0.10;0.10;;;13.90;99.90;;;;;;5052127;28;20120;-91
2023/09/12 05:22:47;;;;;;;0.00;0.00;;;13.90;99.90;;;;;;5035120;28;20025;-90
2023/09/12 05:25:13;;;;;;;2.30;0.28;;;13.90;99.90;;;;;;5036812;28;20052;-92
2023/09/12 05:27:39;;;;;;;0.22;0.10;;;13.90;99.90;;;;;;5035870;28;20036;-92
2023/09/12 05:30:05;;;;;;;0.00;0.00;;;13.90;99.90;;;;;;5041827;28;20120;-92
2023/09/12 05:32:31;;;;;;;0.47;0.20;;;13.90;99.90;;;;;;5058595;28;20110;-91
2023/09/12 05:34:56;;;;;;;2.63;0.10;;;13.90;99.90;;;;;;5064337;28;20028;-90
2023/09/12 05:37:22;;;;;;;0.10;0.10;;;13.90;99.90;;;;;;5061666;28;20051;-92
2023/09/12 05:39:47;;;;;;;0.28;0.10;;;14.00;99.90;;;;;;5063649;28;20470;-91
2023/09/12 05:42:14;;;;;;;1.50;0.10;;;13.90;99.90;;;;;;5059673;28;20079;-93
2023/09/12 05:44:42;;;;;;;0.13;0.13;;;13.90;99.90;;;;;;5057477;28;20021;-93
2023/09/12 05:47:08;;;;;;;0.30;0.20;;;13.80;99.90;;;;;;5056568;28;20060;-94
2023/09/12 05:49:34;;;;;;;0.10;0.10;;;13.80;99.90;;;;;;5059987;28;20505;-93
2023/09/12 05:51:59;;;;;;;0.00;0.00;;;13.80;99.90;;;;;;5038165;28;20068;-92
2023/09/12 05:54:25;;;;;;;0.10;0.10;;;13.90;99.90;;;;;;5036636;28;20064;-93
2023/09/12 05:56:53;;;;;;;0.30;0.10;;;13.90;99.90;;;;;;5047335;28;20056;-91
2023/09/12 05:59:18;;;;;;;0.00;0.00;;;13.90;99.90;;;;;;5053098;28;20611;-93
2023/09/12 06:01:45;;;;;;;0.40;0.10;;;13.80;99.90;;;;;;5038600;28;20037;-92
2023/09/12 06:04:10;;;;;;;0.30;0.10;;;13.80;99.90;;;;;;5046385;28;20462;-92
2023/09/12 06:06:36;;;;;;;0.47;0.30;;;13.80;99.90;;;;;;5038888;28;20068;-91
2023/09/12 06:09:03;;;;;;;0.20;0.20;;;13.80;99.90;;;;;;5041039;28;20056;-92
2023/09/12 06:11:29;;;;;;;1.65;0.10;;;13.80;99.90;;;;;;5041600;28;20045;-92
2023/09/12 06:13:54;;;;;;;0.10;0.10;;;13.80;99.90;;;;;;5042976;28;20029;-91
2023/09/12 06:16:20;;;;;;;0.35;0.30;;;13.70;99.90;;;;;;5047117;28;20064;-92
2023/09/12 06:18:46;;;;;;;0.20;0.20;;;13.70;99.90;;;;;;5034894;28;20040;-91
2023/09/12 06:21:11;;;;;;;0.40;0.20;;;13.70;99.90;;;;;;5034693;28;20028;-92
2023/09/12 06:23:37;;;;;;;0.30;0.10;;;13.70;99.90;;;;;;5034214;28;20029;-92
2023/09/12 06:26:03;;;;;;;0.10;0.10;;;13.70;99.90;;;;;;5034047;28;20105;-91
2023/09/12 06:28:30;;;;;;;3.22;0.10;;;13.70;99.90;;;;;;5033789;28;20099;-93
2023/09/12 06:30:56;;;;;;;0.20;0.05;;;13.70;99.90;;;;;;5034712;28;20542;-92
2023/09/12 06:33:23;;;;;;;0.20;0.10;;;13.70;99.90;;;;;;5033441;28;20026;-91
2023/09/12 06:35:55;;;;;;;0.20;0.20;;;13.70;99.90;;;;;;5033926;28;20052;-91
2023/09/12 06:38:22;;;;;;;0.55;0.10;;;13.70;99.90;;;;;;5033498;28;20041;-92
2023/09/12 06:40:48;;;;;;;0.47;0.30;;;13.70;99.90;;;;;;5034840;28;20025;-91
2023/09/12 06:43:14;;;;;;;0.63;0.10;;;13.70;99.90;;;;;;5044733;28;20024;-91
2023/09/12 06:45:41;;;;;;;1.55;0.17;;;13.70;99.90;;;;;;5046140;28;20032;-91
2023/09/12 06:48:06;;;;;;;5.53;1.30;;;13.70;99.90;;;;;;5056832;28;20052;-90
2023/09/12 06:50:32;;;;;;;0.08;0.08;;;13.70;99.90;;;;;;5053833;28;20029;-91
2023/09/12 06:52:58;;;;;;;0.93;0.30;;;13.70;99.90;;;;;;5053410;28;20096;-91
2023/09/12 06:55:24;;;;;;;0.52;0.20;;;13.70;99.90;;;;;;5054517;28;20033;-91
2023/09/12 06:57:50;;;;;;;0.20;0.10;;;13.70;99.90;;;;;;5054508;28;20061;-90
2023/09/12 07:00:16;;;;;;;0.20;0.20;;;13.70;99.90;;;;;;5053379;28;20110;-92
2023/09/12 07:02:42;;;;;;;0.43;0.40;;;13.70;99.90;;;;;;5057357;28;20451;-91
2023/09/12 07:05:08;;;;;;;0.30;0.20;;;13.70;99.90;;;;;;5070070;28;20547;-91
2023/09/12 07:07:34;;;;;;;0.52;0.10;;;13.70;99.90;;;;;;5070979;28;20086;-90
2023/09/12 07:10:00;;;;;;;0.20;0.20;;;13.70;99.90;;;;;;5054211;28;20482;-92
2023/09/12 07:12:28;;;;;;;1.13;0.10;;;13.70;99.90;;;;;;5053114;28;20033;-91
2023/09/12 07:14:53;;;;;;;1.20;0.20;;;13.80;99.90;;;;;;5053217;28;20032;-91
2023/09/12 07:17:19;;;;;;;0.32;0.20;;;13.80;99.90;;;;;;5053201;28;20028;-91
2023/09/12 07:19:45;;;;;;;0.52;0.10;;;13.90;99.90;;;;;;5052929;28;20036;-91
2023/09/12 07:22:10;;;;;;;0.52;0.10;;;13.90;99.90;;;;;;5048864;28;20104;-92
2023/09/12 07:24:36;;;;;;;0.40;0.10;;;13.90;99.90;;;;;;5043348;28;20499;-91
2023/09/12 07:27:01;;;;;;;1.55;0.20;;;13.90;99.90;;;;;;5050826;28;20078;-89
2023/09/12 07:29:27;;;;;;;0.13;0.10;;;13.90;99.90;;;;;;5060911;28;20013;-92
2023/09/12 07:31:56;;;;;;;0.13;0.10;;;13.90;99.90;;;;;;5045032;28;20458;-91
2023/09/12 07:34:23;;;;;;;0.22;0.20;;;14.00;99.90;;;;;;5034263;28;20074;-94
2023/09/12 07:36:51;;;;;;;1.23;0.20;;;13.90;99.90;;;;;;5051790;28;20043;-90
2023/09/12 07:39:17;;;;;;;0.10;0.10;;;13.90;99.90;;;;;;5036186;28;20499;-91
2023/09/12 07:41:42;;;;;;;1.48;0.15;;;13.90;99.90;;;;;;5053523;28;20035;-92
2023/09/12 07:44:11;;;;;;;0.20;0.20;;;13.90;99.90;;;;;;5053682;28;20104;-94
2023/09/12 07:46:43;;;;;;;0.10;0.10;;;13.90;99.90;;;;;;5051961;28;20056;-94
2023/09/12 07:49:11;;;;;;;2.10;0.20;;;13.90;99.90;;;;;;5068756;28;20032;-95
2023/09/12 07:51:40;;;;;;;0.40;0.10;;;13.90;99.90;;;;;;5042863;28;20029;-93
2023/09/12 07:54:08;;;;;;;0.90;0.10;;;13.90;99.90;;;;;;5050704;28;20086;-93
2023/09/12 07:56:34;;;;;;;0.05;0.05;;;13.90;99.90;;;;;;5047874;28;20079;-92
2023/09/12 07:58:59;;;;;;;0.10;0.10;;;14.00;99.90;;;;;;5045156;28;20041;-93
2023/09/12 08:01:27;;;;;;;1.45;0.08;;;14.00;99.90;;;;;;5043980;28;20025;-92
2023/09/12 08:03:52;;;;;;;0.10;0.08;;;14.10;99.90;;;;;;5040457;28;20108;-93
2023/09/12 08:06:18;;;;;;;0.00;0.00;;;14.10;99.90;;;;;;5040436;28;20128;-92
2023/09/12 08:08:44;;;;;;;0.80;0.00;;;14.20;99.90;;;;;;5049520;28;20025;-91
2023/09/12 08:11:09;;;;;;;0.47;0.10;;;14.20;99.90;;;;;;5044835;28;20024;-92
2023/09/12 08:13:35;;;;;;;0.00;0.00;;;14.30;99.90;;;;;;5044582;28;20053;-91
2023/09/12 08:16:01;;;;;;;0.10;0.10;;;14.20;99.90;;;;;;5044489;28;20018;-92
2023/09/12 08:18:29;;;;;;;0.10;0.10;;;14.30;99.90;;;;;;5038859;28;20041;-92
2023/09/12 08:20:55;;;;;;;1.65;0.03;;;14.30;99.90;;;;;;5044259;28;20028;-93
2023/09/12 08:23:20;;;;;;;2.15;0.08;;;14.30;99.90;;;;;;5042016;28;20041;-91
2023/09/12 08:25:46;;;;;;;0.35;0.10;;;14.30;99.90;;;;;;5041546;28;20030;-93
2023/09/12 08:28:12;;;;;;;0.10;0.10;;;14.30;99.90;;;;;;5045382;28;20119;-92
2023/09/12 08:30:37;;;;;;;0.65;0.00;;;14.30;99.90;;;;;;5044097;28;20021;-91
2023/09/12 08:33:03;;;;;;;0.05;0.05;;;14.30;99.90;;;;;;5043243;28;20078;-91
2023/09/12 08:35:29;;;;;;;0.10;0.10;;;14.30;99.90;;;;;;5049982;28;20036;-91
2023/09/12 08:37:56;;;;;;;0.10;0.10;;;14.30;99.90;;;;;;5053959;28;20072;-91
2023/09/12 08:40:23;;;;;;;0.00;0.00;;;14.40;99.90;;;;;;5051935;28;20060;-92
2023/09/12 08:42:51;;;;;;;0.00;0.00;;;14.40;99.90;;;;;;5051454;28;20024;-91
2023/09/12 08:45:19;;;;;;;0.10;0.10;;;14.40;99.90;;;;;;5045816;28;20029;-92
2023/09/12 08:47:56;;;;;;;0.10;0.10;;;14.40;99.90;;;;;;5047502;28;20025;-92
2023/09/12 08:50:23;;;;;;;0.10;0.10;;;14.50;99.90;;;;;;5045636;28;20402;-92
2023/09/12 08:52:49;;;;;;;0.15;0.15;;;14.50;99.90;;;;;;5048223;28;20024;-92
2023/09/12 08:55:15;;;;;;;0.10;0.10;;;14.50;99.90;;;;;;5038983;28;20025;-89
2023/09/12 08:57:43;;;;;;;0.38;0.30;;;14.50;99.90;;;;;;5041245;28;20021;-90
2023/09/12 09:00:12;;;;;;;0.43;0.30;;;14.50;99.90;;;;;;5043214;28;20037;-93
2023/09/12 09:02:40;;;;;;;0.38;0.30;;;14.50;99.90;;;;;;5041921;28;20024;-90
2023/09/12 09:05:10;;;;;;;0.30;0.30;;;14.60;99.90;;;;;;5057753;28;20037;-91
2023/09/12 09:07:40;;;;;;;0.15;0.15;;;14.60;99.90;;;;;;5039468;28;20037;-92
2023/09/12 09:10:08;;;;;;;0.32;0.32;;;14.60;99.90;;;;;;5045596;28;20098;-92
2023/09/12 09:12:35;;;;;;;0.25;0.25;;;14.60;99.90;;;;;;5040652;28;20029;-93
2023/09/12 09:15:27;;;;;;;0.20;0.20;;;14.60;99.90;;;;;;5045663;28;20044;-93
2023/09/12 09:17:53;;;;;;;0.25;0.20;;;14.70;99.90;;;;;;5043385;28;20494;-92
2023/09/12 09:20:30;;;;;;;0.25;0.25;;;14.70;99.90;;;;;;5036731;28;20079;-92
2023/09/12 09:22:56;;;;;;;0.68;0.47;;;14.70;99.90;;;;;;5040327;28;20017;-93
2023/09/12 09:25:22;;;;;;;0.82;0.52;;;14.70;99.90;;;;;;5041485;28;20367;-92
2023/09/12 09:27:48;;;;;;;0.28;0.28;;;14.70;99.90;;;;;;5042305;28;20018;-93
2023/09/12 09:30:13;;;;;;;0.38;0.38;;;14.70;99.90;;;;;;5042602;28;20057;-95
2023/09/12 09:32:39;;;;;;;1.30;0.50;;;14.70;99.90;;;;;;5040184;28;20520;-92
2023/09/12 09:35:06;;;;;;;1.35;0.60;;;14.70;99.90;;;;;;5057558;28;20040;-93
2023/09/12 09:37:32;;;;;;;2.38;0.63;;;14.70;99.90;;;;;;5041868;28;20490;-93
2023/09/12 09:39:58;;;;;;;1.20;0.60;;;14.70;99.90;;;;;;5046443;28;20059;-93
2023/09/12 09:42:23;;;;;;;0.68;0.63;;;14.70;99.90;;;;;;5041523;28;20033;-94
2023/09/12 09:44:49;;;;;;;1.63;0.60;;;14.70;99.90;;;;;;5044375;28;20482;-92
2023/09/12 09:47:15;;;;;;;0.88;0.70;;;14.70;99.90;;;;;;5043400;28;20629;-92
2023/09/12 09:49:44;;;;;;;3.80;0.80;;;14.70;99.90;;;;;;5050576;28;20021;-92
2023/09/12 09:52:10;;;;;;;1.00;0.80;;;14.70;99.90;;;;;;5046785;28;20108;-92
2023/09/12 09:54:44;;;;;;;1.35;0.90;;;14.70;99.90;;;;;;5049352;28;20055;-93
2023/09/12 09:57:09;;;;;;;1.40;1.30;;;14.80;99.90;;;;;;5046750;28;20031;-92
2023/09/12 09:59:35;;;;;;;1.48;1.38;;;14.80;99.90;;;;;;5050551;28;20486;-92
2023/09/12 10:02:03;;;;;;;1.10;1.00;;;14.80;99.90;;;;;;5042434;28;20083;-92
2023/09/12 10:04:31;;;;;;;1.27;1.00;;;14.80;99.90;;;;;;5046216;28;20135;-92
2023/09/12 10:06:58;;;;;;;1.45;0.80;;;14.80;99.90;;;;;;5043729;28;20025;-93
2023/09/12 10:09:26;;;;;;;1.85;1.20;;;14.90;99.90;;;;;;5045371;28;20029;-93
2023/09/12 10:11:54;;;;;;;1.42;0.70;;;14.90;99.90;;;;;;5044208;28;20080;-92
2023/09/12 10:14:22;;;;;;;4.72;0.70;;;14.90;99.90;;;;;;5045306;28;20086;-92
2023/09/12 10:16:49;;;;;;;1.80;0.80;;;14.90;99.90;;;;;;5045261;28;20068;-93
2023/09/12 10:19:21;;;;;;;0.80;0.80;;;14.90;99.90;;;;;;5047548;28;20052;-92
2023/09/12 10:21:54;;;;;;;1.00;0.90;;;14.90;99.90;;;;;;5045655;28;20237;-91
2023/09/12 10:24:21;;;;;;;0.95;0.77;;;14.90;99.90;;;;;;5055688;28;20036;-90
2023/09/12 10:26:50;;;;;;;1.83;1.25;;;14.90;99.90;;;;;;5058631;28;20036;-90
2023/09/12 10:29:16;;;;;;;0.80;0.80;;;14.90;99.90;;;;;;5064685;28;20021;-91
2023/09/12 10:31:42;;;;;;;1.00;0.80;;;14.90;99.90;;;;;;5075729;28;20029;-91
2023/09/12 10:34:10;;;;;;;0.93;0.80;;;15.00;99.90;;;;;;5073805;28;20500;-90
2023/09/12 10:36:40;;;;;;;0.90;0.75;;;15.00;99.90;;;;;;5075449;28;20025;-91
2023/09/12 10:39:07;;;;;;;1.10;0.80;;;15.00;99.90;;;;;;5074113;28;20051;-91
2023/09/12 10:41:36;;;;;;;1.33;0.93;;;15.00;99.90;;;;;;5075341;28;20035;-92
2023/09/12 10:44:09;;;;;;;0.93;0.80;;;15.00;99.90;;;;;;5073585;28;20024;-90
2023/09/12 10:46:39;;;;;;;2.10;0.70;;;15.00;99.90;;;;;;5074702;28;20561;-90
2023/09/12 10:49:10;;;;;;;2.45;1.23;;;15.00;99.90;;;;;;5074305;28;20025;-93
2023/09/12 10:51:44;;;;;;;0.82;0.73;;;15.00;99.90;;;;;;5073183;28;20028;-92
2023/09/12 10:54:24;;;;;;;0.60;0.60;;;15.00;99.90;;;;;;5060254;28;20038;-91
2023/09/12 10:57:06;;;;;;;0.75;0.50;;;14.90;99.90;;;;;;5043963;28;20087;-93
2023/09/12 10:59:35;;;;;;;0.63;0.50;;;14.90;99.90;;;;;;5042763;28;20032;-94
2023/09/12 11:02:33;;;;;;;1.40;0.77;;;14.90;99.90;;;;;;5054253;28;20020;-94
2023/09/12 11:05:00;;;;;;;0.85;0.73;;;15.00;99.90;;;;;;5054275;28;20127;-93
2023/09/12 11:07:37;;;;;;;0.60;0.60;;;15.00;99.90;;;;;;5055594;28;20048;-93
2023/09/12 11:10:18;;;;;;;1.25;0.73;;;15.10;99.90;;;;;;5053013;28;20159;-93
2023/09/12 11:12:49;;;;;;;0.80;0.77;;;15.10;99.90;;;;;;5053610;28;20039;-94
2023/09/12 11:15:17;;;;;;;;;;;15.10;99.90;;;;;;5054653;28;20110;-93
2023/09/12 11:17:48;;;;;;;1.40;0.63;;;15.10;99.90;;;;;;5052832;28;19911;-91
2023/09/12 11:20:15;;;;;;;1.40;0.88;;;15.20;99.90;;;;;;5052932;28;20033;-92
2023/09/12 11:22:47;;;;;;;2.08;0.75;;;15.20;99.90;;;;;;5052804;28;20017;-93
2023/09/12 11:25:26;;;;;;;1.30;0.80;;;15.20;99.90;;;;;;5053144;28;20777;-92
2023/09/12 11:27:52;;;;;;;1.15;0.90;;;15.20;99.90;;;;;;5047685;28;20097;-92
2023/09/12 11:30:23;;;;;;;1.05;0.95;;;15.20;99.90;;;;;;5047945;28;20100;-92
2023/09/12 11:32:51;;;;;;;0.82;0.82;;;15.20;99.90;;;;;;5052927;28;20029;-92
2023/09/12 11:35:27;;;;;;;0.98;0.70;;;15.20;99.90;;;;;;5066244;28;20462;-94
2023/09/12 11:37:58;;;;;;;0.82;0.77;;;15.20;99.90;;;;;;5069029;28;20783;-92
2023/09/12 11:40:42;;;;;;;2.55;0.82;;;15.20;99.90;;;;;;5049846;28;20055;-91
2023/09/12 11:43:17;;;;;;;0.82;0.70;;;15.30;99.90;;;;;;5051539;28;20021;-91
2023/09/12 11:45:44;;;;;;;0.75;0.73;;;15.30;99.90;;;;;;5073239;28;20120;-91
2023/09/12 11:48:10;;;;;;;4.13;0.70;;;15.30;99.90;;;;;;5074869;28;20028;-92
2023/09/12 11:50:38;;;;;;;1.10;0.47;;;15.40;99.90;;;;;;5065505;28;20398;-90
2023/09/12 11:53:07;;;;;;;0.40;0.40;;;15.40;99.90;;;;;;5055137;28;20039;-93
2023/09/12 11:55:36;;;;;;;0.57;0.50;;;15.40;99.90;;;;;;5062481;28;20017;-95
2023/09/12 11:58:03;;;;;;;0.73;0.68;;;15.50;99.90;;;;;;5064148;28;20037;-96
2023/09/12 12:00:28;;;;;;;0.88;0.60;;;15.50;99.90;;;;;;5080097;28;20032;-95
2023/09/12 12:02:55;;;;;;;0.77;0.70;;;15.50;99.90;;;;;;5096553;28;20012;-96
2023/09/12 12:05:24;;;;;;;0.65;0.50;;;15.50;99.90;;;;;;5081845;28;20025;-93
2023/09/12 12:07:50;;;;;;;0.90;0.68;;;15.50;99.90;;;;;;5074598;28;20033;-94
2023/09/12 12:10:18;;;;;;;0.57;0.57;;;15.50;99.90;;;;;;5069910;28;20573;-95
2023/09/12 12:12:46;;;;;;;0.47;0.47;;;15.50;99.90;;;;;;5067254;28;20043;-95
2023/09/12 12:15:12;;;;;;;1.65;0.60;;;15.60;99.90;;;;;;5068205;28;20021;-95
2023/09/12 12:17:40;;;;;;;0.93;0.68;;;15.60;99.90;;;;;;5059306;28;20033;-96
2023/09/12 12:20:10;;;;;;;1.20;0.90;;;15.60;99.90;;;;;;5071527;28;20040;-96
2023/09/12 12:22:39;;;;;;;1.27;0.90;;;15.60;99.90;;;;;;5079270;28;20033;-96
2023/09/12 12:25:09;;;;;;;1.10;0.80;;;15.60;99.90;;;;;;5080316;28;20021;-96
2023/09/12 12:27:39;;;;;;;0.97;0.80;;;15.60;99.90;;;;;;5078501;28;20127;-94
2023/09/12 12:30:10;;;;;;;0.90;0.83;;;15.60;99.90;;;;;;5063069;28;20112;-94
2023/09/12 12:32:40;;;;;;;0.93;0.93;;;15.60;99.90;;;;;;5086146;28;20128;-96
2023/09/12 12:35:07;;;;;;;0.80;0.80;;;15.60;99.90;;;;;;5074829;28;20028;-96
2023/09/12 12:37:34;;;;;;;3.63;0.52;;;15.60;99.90;;;;;;5079656;28;20042;-96
2023/09/12 12:40:00;;;;;;;0.50;0.50;;;15.60;99.90;;;;;;5079233;28;20048;-96
2023/09/12 12:42:34;;;;;;;1.05;0.73;;;15.50;99.90;;;;;;5081265;28;20040;-96
2023/09/12 12:44:59;;;;;;;0.80;0.80;;;15.50;99.90;;;;;;5081542;28;20144;-96
2023/09/12 12:47:25;;;;;;;0.82;0.77;;;15.40;99.90;;;;;;5073011;28;20079;-96
2023/09/12 12:49:52;;;;;;;1.05;0.95;;;15.40;99.90;;;;;;5072773;28;20028;-96